createdAt,value
2017-05-05T00:00:02.673Z,6.94
2017-05-05T00:15:02.869Z,6.9
2017-05-05T00:30:02.567Z,6.88
2017-05-05T00:45:02.566Z,6.85
2017-05-05T01:00:02.607Z,6.88
2017-05-05T01:15:03.099Z,6.8
2017-05-05T01:30:02.462Z,6.81
2017-05-05T01:45:02.283Z,6.75
2017-05-05T02:00:02.727Z,6.66
2017-05-05T02:15:02.750Z,6.63
2017-05-05T02:30:02.464Z,6.53
2017-05-05T02:45:02.618Z,6.49
2017-05-05T03:00:03.049Z,6.49
2017-05-05T03:15:02.507Z,6.45
2017-05-05T03:30:02.819Z,6.48
2017-05-05T03:45:02.739Z,6.49
2017-05-05T04:00:02.823Z,6.51
2017-05-05T04:15:03.075Z,6.5
2017-05-05T04:30:02.797Z,6.5
2017-05-05T04:45:02.581Z,6.49
2017-05-05T05:00:03.123Z,6.53
2017-05-05T05:15:02.682Z,6.53
2017-05-05T05:30:02.350Z,6.6
2017-05-05T05:45:02.887Z,6.68
2017-05-05T06:00:02.452Z,6.81
2017-05-05T06:15:02.252Z,6.88
2017-05-05T06:30:02.276Z,7
2017-05-05T06:45:02.639Z,7.14
2017-05-05T07:00:02.966Z,7.16
2017-05-05T07:15:02.611Z,7.16
2017-05-05T07:30:02.526Z,7.22
2017-05-05T07:45:02.372Z,7.23
2017-05-05T08:00:02.309Z,7.27
2017-05-05T08:15:02.803Z,7.27
2017-05-05T08:30:02.905Z,7.33
2017-05-05T08:45:02.272Z,7.41
2017-05-05T09:00:02.244Z,7.35
2017-05-05T09:15:02.308Z,7.47
2017-05-05T09:30:03.067Z,7.6
2017-05-05T09:45:03.070Z,7.67
2017-05-05T10:00:02.625Z,7.69
2017-05-05T10:15:02.684Z,7.78
2017-05-05T10:30:02.718Z,7.83
2017-05-05T10:45:02.837Z,7.89
2017-05-05T11:00:02.852Z,8.02
2017-05-05T11:15:02.210Z,8.17
2017-05-05T11:30:02.824Z,8.16
2017-05-05T11:45:02.277Z,8.17
2017-05-05T12:00:02.779Z,8.27
2017-05-05T12:15:02.801Z,8.28
2017-05-05T12:30:02.494Z,8.31
2017-05-05T12:45:02.936Z,8.33
2017-05-05T13:00:02.884Z,8.39
2017-05-05T13:15:02.552Z,8.43
2017-05-05T13:30:03.040Z,8.47
2017-05-05T13:45:02.561Z,8.56
2017-05-05T14:00:03.077Z,8.63
2017-05-05T14:15:02.144Z,8.58
2017-05-05T14:30:02.855Z,8.66
2017-05-05T14:45:02.356Z,8.64
2017-05-05T15:00:02.633Z,8.72
2017-05-05T15:15:02.509Z,8.85
2017-05-05T15:30:02.715Z,9.01
2017-05-05T15:45:02.731Z,9.12
2017-05-05T16:00:02.732Z,9.07
2017-05-05T16:15:02.542Z,8.98
2017-05-05T16:30:02.287Z,8.89
2017-05-05T16:45:02.831Z,8.86
2017-05-05T17:00:02.311Z,8.88
2017-05-05T17:15:02.276Z,8.89
2017-05-05T17:30:02.902Z,8.86
2017-05-05T17:45:02.680Z,8.81
2017-05-05T18:00:03.149Z,8.75
2017-05-05T18:15:02.183Z,8.71
2017-05-05T18:30:02.939Z,8.67
2017-05-05T18:45:02.385Z,8.64
2017-05-05T19:00:02.300Z,8.62
2017-05-05T19:15:03.005Z,8.58
2017-05-05T19:30:02.187Z,8.55
2017-05-05T19:45:02.679Z,8.52
2017-05-05T20:00:02.109Z,8.49
2017-05-05T20:15:02.573Z,8.48
2017-05-05T20:30:02.936Z,8.48
2017-05-05T20:45:02.541Z,8.45
2017-05-05T21:00:02.236Z,8.42
2017-05-05T21:15:02.635Z,8.36
2017-05-05T21:30:02.589Z,8.34
2017-05-05T21:45:02.623Z,8.31
2017-05-05T22:00:02.716Z,8.3
2017-05-05T22:15:02.492Z,8.29
2017-05-05T22:30:02.154Z,8.29
2017-05-05T22:45:03.059Z,8.29
2017-05-05T23:00:02.400Z,8.28
2017-05-05T23:15:02.494Z,8.28
2017-05-05T23:30:02.467Z,8.29
2017-05-05T23:45:02.366Z,8.28
